Latest Coastal Weather Observations for Merimbula

IDN60701

Issued at 8:11 pm EDT Saturday 13 February 2016 (issued every 10 minutes, with the page automatically refreshed every 10 minutes)

About coastal observations | Map of coastal stations | Coastal observations for NSW | Marine services | Other Formats
Station Details ID: 069147 Name: MERIMBULA AIRPORT AWS Lat: -36.91 Lon: 149.90 Height: 1.5 m
Data from the previous 72 hours. | See also: Recent months at Merimbula
Date/Time
EDT
Temp

°C
Wind Pressure Rain
since 9am
mm
Weather Cloud Vis
km
Sea
Height
m
Swell
Dir
 
Speed
knots
Gust
knots
hPa Trend Height
m
Period
s
Dir
13/08:00pm 23.7 NE 6 9 1006.9 - 0.0 - - 10 - - - -
13/07:30pm 24.2 NE 8 11 1006.3 - 0.0 - - 10 - - - -
13/07:00pm 25.2 NE 8 12 1006.2 - 0.0 - - 10 - - - -
13/06:30pm 25.7 NE 6 10 1006.3 - 0.0 - - 10 - - - -
13/06:00pm 25.5 NE 8 12 1006.1 - 0.0 - - 10 - - - -
13/05:30pm 26.4 NE 10 16 1006.1 - 0.0 - - 10 - - - -
13/05:00pm 26.0 NE 9 17 1006.4 - 0.0 - - 10 - - - -
13/04:30pm 27.3 NE 10 14 1006.5 - 0.0 - - 10 - - - -
13/04:00pm 27.3 NE 9 17 1006.9 - 0.0 - - 10 - - - -
13/03:30pm 26.8 NNE 12 19 1006.9 - 0.0 - - 10 - - - -
13/03:00pm 26.7 NE 12 20 1007.4 - 0.0 - - 10 - - - -
13/02:30pm 27.4 NE 11 17 1007.9 - 0.0 - - 10 - - - -
13/02:00pm 27.1 NE 11 17 1008.3 - 0.0 - - 10 - - - -
13/01:30pm 26.4 NE 12 17 1008.6 - 0.0 - - 10 - - - -
13/01:00pm 27.4 NE 12 18 1008.9 - 0.0 - - 10 - - - -
13/12:30pm 27.4 NE 11 16 1009.4 - 0.0 - - 10 - - - -
13/12:00pm 27.4 NE 10 15 1009.8 - 0.0 - - 10 - - - -
13/11:30am 27.3 NE 9 14 1010.2 - 0.0 - - 10 - - - -
13/11:00am 26.1 NE 10 15 1010.5 - 0.0 - - 10 - - - -
13/10:30am 26.0 NE 5 7 1010.8 - 0.0 - - 10 - - - -
13/10:00am 25.3 E 5 7 1011.1 - 0.0 - - 10 - - - -
13/09:30am 24.1 CALM 0 0 1011.3 - 0.0 - - 10 - - - -
13/09:00am 22.9 NE 1 4 1011.5 - 0.0 - - 10 - - - -
13/08:30am 22.2 NW 5 6 1011.6 - 0.0 - - 10 - - - -
13/08:00am 21.5 NW 5 7 1011.7 - 0.0 - - 10 - - - -
13/07:30am 20.8 NW 2 5 1011.6 - 0.0 - - 10 - - - -
13/07:00am 19.3 WNW 2 5 1011.5 - 0.0 - - 10 - - - -
13/06:37am 19.4 NW 5 7 1011.5 - 0.0 - - 10 - - - -
13/06:30am 19.1 NW 2 7 1011.4 - 0.0 - - 10 - - - -
13/06:00am 17.5 CALM 0 0 1011.4 - 0.0 - - 4 - - - -
13/05:30am 17.7 CALM 0 0 1011.2 - 0.0 - - 3 - - - -
13/05:14am 18.0 CALM 0 0 1011.2 - 0.0 - - 5 - - - -
13/05:00am 18.1 CALM 0 0 1011.3 - 0.0 - - 10 - - - -
13/04:30am 18.6 CALM 0 0 1011.4 - 0.0 - - 10 - - - -
13/04:00am 18.7 CALM 0 0 1011.6 - 0.0 - - 9 - - - -
13/03:30am 19.3 CALM 0 0 1011.9 - 0.0 - - 10 - - - -
13/03:00am 19.2 CALM 0 0 1012.2 - 0.0 - - 10 - - - -
13/02:30am 19.0 CALM 0 0 1012.4 - 0.0 - - 10 - - - -
13/02:00am 19.3 CALM 0 0 1012.9 - 0.0 - - 10 - - - -
13/01:30am 19.8 CALM 0 0 1013.0 - 0.0 - - 10 - - - -
13/01:00am 20.8 CALM 0 0 1013.3 - 0.0 - - 10 - - - -
13/12:30am 21.2 NNW 3 5 1013.5 - 0.0 - - 10 - - - -
13/12:00am 21.7 N 5 7 1013.6 - 0.0 - - 10 - - - -
 
Date/Time
EDT
Temp

°C
Wind Pressure Rain
since 9am
mm
Weather Cloud Vis
km
Sea
Height
m
Swell
Dir
 
Speed
knots
Gust
knots
hPa Trend Height
m
Period
s
Dir
12/11:30pm 21.6 CALM 0 0 1013.9 - 0.0 - - 10 - - - -
12/11:00pm 22.1 NNW 5 7 1013.9 - 0.0 - - 10 - - - -
12/10:30pm 22.3 N 5 8 1014.2 - 0.0 - Partly cloudy 10 - - - -
12/10:00pm 22.5 N 5 8 1014.4 - 0.0 - Partly cloudy 10 - - - -
12/09:30pm 22.7 N 5 8 1014.4 - 0.0 - Partly cloudy 10 - - - -
12/09:00pm 22.9 NNE 6 11 1014.0 - 0.0 - - 10 - - - -
12/08:30pm 23.1 NNE 6 11 1013.9 - 0.0 - - 10 - - - -
12/08:00pm 23.3 NNE 6 10 1013.6 - 0.0 - - 10 - - - -
12/07:30pm 23.8 NNE 9 15 1013.4 - 0.0 - - 10 - - - -
12/07:00pm 24.3 NNE 10 19 1013.2 - 0.0 - - 10 - - - -
12/06:30pm 24.7 NNE 10 19 1013.1 - 0.0 - - 10 - - - -
12/06:00pm 25.4 NNE 10 17 1013.1 - 0.0 - - 10 - - - -
12/05:30pm 25.7 NE 10 15 1013.0 - 0.0 - - 10 - - - -
12/05:00pm 26.0 NE 10 17 1013.0 - 0.0 - - 10 - - - -
12/04:30pm 24.5 NE 11 17 1013.3 - 0.0 - - 10 - - - -
12/04:00pm 25.7 NE 11 20 1013.3 - 0.0 - - 10 - - - -
12/03:30pm 26.2 NE 13 19 1013.4 - 0.0 - - 10 - - - -
12/03:00pm 26.4 NE 10 16 1013.8 - 0.0 - - 10 - - - -
12/02:30pm 26.0 NE 12 17 1014.3 - 0.0 - - 10 - - - -
12/02:00pm 26.1 NE 11 17 1014.6 - 0.0 - - 10 - - - -
12/01:30pm 25.5 NE 12 17 1014.8 - 0.0 - - 10 - - - -
12/01:00pm 25.3 NE 9 15 1015.3 - 0.0 - - 10 - - - -
12/12:30pm 25.3 ENE 10 14 1015.7 - 0.0 - - 10 - - - -
12/12:00pm 25.3 ENE 9 13 1016.0 - 0.0 - - 10 - - - -
12/11:30am 24.6 E 8 12 1016.2 - 0.0 - - 10 - - - -
12/11:00am 24.4 ESE 6 10 1016.4 - 0.0 - Partly cloudy 10 - - - -
12/10:30am 23.4 ESE 5 7 1016.6 - 0.0 - Partly cloudy 10 - - - -
12/10:00am 24.0 ESE 3 7 1016.6 - 0.0 - Partly cloudy 10 - - - -
12/09:30am 23.6 CALM 0 0 1016.6 - 0.0 - - 10 - - - -
12/09:00am 22.3 CALM 0 0 1016.9 - 1.2 - - 10 - - - -
12/08:30am 20.8 CALM 0 0 1016.9 - 1.2 - - 10 - - - -
12/08:00am 19.9 CALM 0 0 1016.6 - 1.2 - - 10 - - - -
12/07:30am 19.6 CALM 0 0 1016.6 - 1.2 - Partly cloudy 7 - - - -
12/07:10am 19.2 CALM 0 0 1016.4 - 1.2 - Cloudy 6 - - - -
12/07:00am 19.0 CALM 0 0 1016.3 - 1.2 - Partly cloudy 5 - - - -
12/06:30am 19.0 CALM 0 0 1016.1 - 1.2 - Partly cloudy 5 - - - -
12/06:01am 19.0 CALM 0 0 1015.7 - 1.2 - Partly cloudy 5 - - - -
12/06:00am 19.0 CALM 0 0 1015.7 - 1.2 - Cloudy 6 - - - -
12/05:59am 19.0 CALM 0 0 1015.7 - 1.2 - Partly cloudy 6 - - - -
12/05:43am 19.0 CALM 0 0 1015.7 - 1.2 - Partly cloudy 6 - - - -
12/05:30am 18.9 CALM 0 0 1015.6 - 1.2 - Partly cloudy 5 - - - -
12/05:24am 19.0 CALM 0 0 1015.6 - 1.2 - Partly cloudy 5 - - - -
12/05:10am 18.8 CALM 0 0 1015.5 - 1.2 - Partly cloudy 5 - - - -
12/05:00am 18.8 CALM 0 0 1015.4 - 1.2 - Partly cloudy 5 - - - -
12/04:54am 18.7 CALM 0 0 1015.4 - 1.2 - Partly cloudy 5 - - - -
12/04:53am 18.7 CALM 0 0 1015.4 - 1.2 - Partly cloudy 6 - - - -
12/04:49am 18.8 CALM 0 0 1015.4 - 1.2 - Partly cloudy 7 - - - -
12/04:41am 18.8 CALM 0 0 1015.5 - 1.2 - Partly cloudy 5 - - - -
12/04:30am 18.9 CALM 0 0 1015.5 - 1.2 - Partly cloudy 7 - - - -
12/04:21am 19.0 CALM 0 0 1015.5 - 1.2 - Partly cloudy 6 - - - -
12/04:04am 18.9 CALM 0 0 1015.6 - 1.2 - Partly cloudy 6 - - - -
12/04:00am 19.0 CALM 0 0 1015.6 - 1.2 - Partly cloudy 6 - - - -
12/03:41am 19.0 CALM 0 0 1015.7 - 1.2 - Partly cloudy 8 - - - -
12/03:30am 19.1 CALM 0 0 1015.8 - 1.2 - Partly cloudy 6 - - - -
12/03:28am 19.0 CALM 0 0 1015.8 - 1.2 - Partly cloudy 6 - - - -
12/03:00am 18.9 CALM 0 0 1015.8 - 1.2 - Cloudy 4 - - - -
12/02:50am 18.9 CALM 0 0 1015.9 - 1.2 - Partly cloudy 5 - - - -
12/02:30am 18.8 CALM 0 0 1015.9 - 1.2 - Cloudy 5 - - - -
12/02:00am 19.0 CALM 0 0 1016.0 - 1.2 - Partly cloudy 5 - - - -
12/01:30am 18.5 CALM 0 0 1016.3 - 1.2 - Partly cloudy 3 - - - -
12/01:01am 18.8 CALM 0 0 1016.5 - 1.2 - - 5 - - - -
12/01:00am 18.8 CALM 0 0 1016.5 - 1.2 - - 6 - - - -
12/12:57am 18.9 CALM 0 0 1016.5 - 1.2 - - 6 - - - -
12/12:30am 19.2 CALM 0 0 1016.7 - 1.2 - Partly cloudy 5 - - - -
12/12:19am 19.4 CALM 0 0 1016.9 - 1.2 - Partly cloudy 5 - - - -
12/12:10am 19.5 CALM 0 0 1017.0 - 1.2 - Partly cloudy 5 - - - -
12/12:00am 19.6 CALM 0 0 1017.2 - 1.2 - Cloudy 6 - - - -
 
Date/Time
EDT
Temp

°C
Wind Pressure Rain
since 9am
mm
Weather Cloud Vis
km
Sea
Height
m
Swell
Dir
 
Speed
knots
Gust
knots
hPa Trend Height
m
Period
s
Dir
11/11:42pm 19.4 CALM 0 0 1017.2 - 1.2 - Partly cloudy 8 - - - -
11/11:41pm 19.4 CALM 0 0 1017.2 - 1.2 - Partly cloudy 8 - - - -
11/11:30pm 19.4 CALM 0 0 1017.2 - 1.2 - Partly cloudy 8 - - - -
11/11:12pm 19.5 CALM 0 0 1017.3 - 1.2 - Partly cloudy 7 - - - -
11/11:00pm 19.6 CALM 0 0 1017.4 - 1.2 - Partly cloudy 7 - - - -
11/10:58pm 19.6 CALM 0 0 1017.4 - 1.2 - Partly cloudy 7 - - - -
11/10:40pm 19.7 CALM 0 0 1017.3 - 1.2 - Partly cloudy 5 - - - -
11/10:30pm 19.7 CALM 0 0 1017.3 - 1.2 - Partly cloudy 7 - - - -
11/10:00pm 19.8 CALM 0 0 1017.2 - 1.2 - Partly cloudy 6 - - - -
11/09:47pm 19.8 CALM 0 0 1017.1 - 1.0 - Partly cloudy 6 - - - -
11/09:30pm 19.9 CALM 0 0 1016.8 - 1.0 - Partly cloudy 5 - - - -
11/09:22pm 19.9 CALM 0 0 1016.8 - 1.0 - Partly cloudy 5 - - - -
11/09:17pm 19.9 CALM 0 0 1016.6 - 1.0 - Partly cloudy 7 - - - -
11/09:14pm 19.8 CALM 0 0 1016.7 - 1.0 - Partly cloudy 7 - - - -
11/09:00pm 20.0 CALM 0 0 1016.5 - 1.0 Recent precip. Cloudy 5 - - - -
11/08:31pm 20.1 CALM 0 0 1016.4 - 0.8 - Partly cloudy 5 - - - -
11/08:30pm 20.1 CALM 0 0 1016.4 - 0.8 - Partly cloudy 6 - - - -
11/08:13pm 20.0 CALM 0 0 1016.2 - 0.8 - Cloudy 6 - - - -
11/08:00pm 20.2 CALM 0 0 1016.2 - 0.8 - Cloudy 5 - - - -
11/07:30pm 20.2 CALM 0 0 1015.8 - 0.6 - Cloudy 5 - - - -
11/07:00pm 20.6 CALM 0 0 1015.6 - 0.0 - Cloudy 4 - - - -
11/06:30pm 21.5 ESE 2 7 1015.6 - 0.0 - Cloudy 5 - - - -
11/06:05pm 21.7 SE 4 6 1015.4 - 0.0 - Cloudy 10 - - - -
11/06:00pm 21.7 SE 4 6 1015.4 - 0.0 - Cloudy 10 - - - -
11/05:30pm 21.8 SE 5 7 1015.3 - 0.0 - Cloudy 10 - - - -
11/05:00pm 22.0 SE 5 7 1015.3 - 0.0 - Cloudy 10 - - - -
11/04:30pm 22.5 ESE 5 8 1015.0 - 0.0 - Cloudy 10 - - - -
11/04:00pm 22.9 E 5 8 1015.3 - 0.0 - Partly cloudy 10 - - - -
11/03:30pm 22.9 ESE 4 5 1015.3 - 0.0 - Partly cloudy 10 - - - -
11/03:00pm 22.9 ESE 1 7 1015.6 - 0.0 - Cloudy 10 - - - -
11/02:30pm 23.1 ESE 4 6 1015.9 - 0.0 - Cloudy 10 - - - -
11/02:00pm 22.9 ESE 1 5 1016.1 - 0.0 - Cloudy 10 - - - -
11/01:30pm 21.3 SSE 1 4 1016.5 - 0.0 - Cloudy 10 - - - -
11/01:12pm 20.6 S 5 6 1016.5 - 0.0 - Cloudy 10 - - - -
11/01:00pm 20.9 SSE 4 6 1016.5 - 0.0 - Cloudy 5 - - - -
11/12:53pm 20.7 SSE 4 6 1016.6 - 0.0 - Cloudy 5 - - - -
11/12:30pm 20.9 SSE 5 7 1016.6 - 0.0 - Partly cloudy 8 - - - -
11/12:00pm 21.1 SSE 4 6 1016.7 - 0.0 - Cloudy 6 - - - -
11/11:30am 21.5 SE 5 8 1016.7 - 0.0 - Cloudy 9 - - - -
11/11:00am 21.8 SE 5 6 1016.6 - 0.0 - Cloudy 9 - - - -
11/10:42am 22.0 ESE 3 7 1016.6 - 0.0 - Partly cloudy 10 - - - -
11/10:30am 22.2 CALM 0 0 1016.4 - 0.0 - Partly cloudy 10 - - - -
11/10:13am 22.3 CALM 0 0 1016.5 - 0.0 - Partly cloudy 10 - - - -
11/10:00am 22.4 CALM 0 0 1016.4 - 0.0 - Partly cloudy 10 - - - -
11/09:30am 21.5 SE 4 6 1016.3 - 0.0 - Partly cloudy 10 - - - -
11/09:00am 21.2 CALM 0 0 1016.2 - 0.0 - Cloudy 10 - - - -
11/08:30am 21.0 CALM 0 0 1016.1 - 0.0 - Partly cloudy 10 - - - -
11/08:00am 20.6 CALM 0 0 1015.9 - 0.0 - Cloudy 10 - - - -
11/07:30am 20.2 CALM 0 0 1015.6 - 0.0 - Cloudy 10 - - - -
11/07:00am 20.0 CALM 0 0 1015.3 - 0.0 - Partly cloudy 10 - - - -
11/06:30am 20.1 CALM 0 0 1015.0 - 0.0 - Cloudy 10 - - - -
11/06:00am 20.1 CALM 0 0 1014.8 - 0.0 - Cloudy 10 - - - -
11/05:30am 20.4 CALM 0 0 1014.5 - 0.0 - Partly cloudy 10 - - - -
11/05:00am 20.4 CALM 0 0 1014.3 - 0.0 - Partly cloudy 10 - - - -
11/04:30am 20.5 CALM 0 0 1014.2 - 0.0 - Partly cloudy 10 - - - -
11/04:00am 20.5 CALM 0 0 1014.1 - 0.0 - Partly cloudy 10 - - - -
11/03:30am 20.5 CALM 0 0 1014.1 - 0.0 - Cloudy 10 - - - -
11/03:00am 20.4 CALM 0 0 1014.2 - 0.0 - Cloudy 10 - - - -
11/02:30am 20.4 CALM 0 0 1014.4 - 0.0 - Partly cloudy 10 - - - -
11/02:00am 20.3 CALM 0 0 1014.6 - 0.0 - Cloudy 10 - - - -
11/01:30am 20.1 CALM 0 0 1014.8 - 0.0 - Partly cloudy 10 - - - -
11/01:00am 19.9 CALM 0 0 1014.9 - 0.0 - Partly cloudy 10 - - - -
11/12:30am 20.0 CALM 0 0 1015.2 - 0.0 - Partly cloudy 8 - - - -
11/12:00am 20.7 CALM 0 0 1015.2 - 0.0 - Cloudy 10 - - - -
 
Date/Time
EDT
Temp

°C
Wind Pressure Rain
since 9am
mm
Weather Cloud Vis
km
Sea
Height
m
Swell
Dir
 
Speed
knots
Gust
knots
hPa Trend Height
m
Period
s
Dir
10/11:30pm 21.3 CALM 0 0 1015.4 - 0.0 - Partly cloudy 10 - - - -
10/11:00pm 21.2 CALM 0 0 1015.3 - 0.0 - Cloudy 10 - - - -
10/10:30pm 21.8 CALM 0 0 1015.4 - 0.0 - Partly cloudy 10 - - - -
10/10:00pm 21.8 CALM 0 0 1015.7 - 0.0 - Partly cloudy 10 - - - -
10/09:30pm 21.9 CALM 0 0 1015.4 - 0.0 - Partly cloudy 10 - - - -
10/09:00pm 21.9 SSE 2 5 1015.3 - 0.0 - Cloudy 10 - - - -
10/08:30pm 22.0 S 5 8 1015.2 - 0.0 - Cloudy 10 - - - -

Other Formats:

Comma delimited format used in spreadsheet applications
http://www.bom.gov.au/fwo/IDN60701/IDN60701.95929.axf

JavaScript Object Notation format (JSON) in row-major order
http://www.bom.gov.au/fwo/IDN60701/IDN60701.95929.json